sensor_id;sensor_type;location;lat;lon;timestamp;temperature;humidity
9179;DHT22;4624;48.126;11.546;2022-09-21T00:01:12;9.10;99.90
9179;DHT22;4624;48.126;11.546;2022-09-21T00:03:40;9.00;99.90
9179;DHT22;4624;48.126;11.546;2022-09-21T00:06:09;9.00;99.90
9179;DHT22;4624;48.126;11.546;2022-09-21T00:08:38;9.00;99.90
9179;DHT22;4624;48.126;11.546;2022-09-21T00:11:05;9.00;99.90
9179;DHT22;4624;48.126;11.546;2022-09-21T00:13:33;8.90;99.90
9179;DHT22;4624;48.126;11.546;2022-09-21T00:16:04;8.90;99.90
9179;DHT22;4624;48.126;11.546;2022-09-21T00:18:31;8.90;99.90
9179;DHT22;4624;48.126;11.546;2022-09-21T00:20:58;8.80;99.90
9179;DHT22;4624;48.126;11.546;2022-09-21T00:23:25;8.80;99.90
9179;DHT22;4624;48.126;11.546;2022-09-21T00:26:03;8.90;99.90
9179;DHT22;4624;48.126;11.546;2022-09-21T00:28:30;8.80;99.90
9179;DHT22;4624;48.126;11.546;2022-09-21T00:31:00;8.90;99.90
9179;DHT22;4624;48.126;11.546;2022-09-21T00:33:27;8.80;99.90
9179;DHT22;4624;48.126;11.546;2022-09-21T00:35:54;8.80;99.90
9179;DHT22;4624;48.126;11.546;2022-09-21T00:38:21;8.80;99.90
9179;DHT22;4624;48.126;11.546;2022-09-21T00:40:47;8.80;99.90
9179;DHT22;4624;48.126;11.546;2022-09-21T00:43:16;8.80;99.90
9179;DHT22;4624;48.126;11.546;2022-09-21T00:45:44;8.70;99.90
9179;DHT22;4624;48.126;11.546;2022-09-21T00:48:12;8.70;99.90
9179;DHT22;4624;48.126;11.546;2022-09-21T00:50:43;8.70;99.90
9179;DHT22;4624;48.126;11.546;2022-09-21T00:53:12;8.70;99.90
9179;DHT22;4624;48.126;11.546;2022-09-21T00:55:43;8.60;99.90
9179;DHT22;4624;48.126;11.546;2022-09-21T00:58:16;8.60;99.90
9179;DHT22;4624;48.126;11.546;2022-09-21T01:00:45;8.60;99.90
9179;DHT22;4624;48.126;11.546;2022-09-21T01:03:12;8.50;99.90
9179;DHT22;4624;48.126;11.546;2022-09-21T01:05:39;8.60;99.90
9179;DHT22;4624;48.126;11.546;2022-09-21T01:08:06;8.60;99.90
9179;DHT22;4624;48.126;11.546;2022-09-21T01:10:44;8.50;99.90
9179;DHT22;4624;48.126;11.546;2022-09-21T01:13:21;8.50;99.90
9179;DHT22;4624;48.126;11.546;2022-09-21T01:15:54;8.50;99.90
9179;DHT22;4624;48.126;11.546;2022-09-21T01:18:29;8.50;99.90
9179;DHT22;4624;48.126;11.546;2022-09-21T01:21:19;8.40;99.90
9179;DHT22;4624;48.126;11.546;2022-09-21T01:27:39;8.40;99.90
9179;DHT22;4624;48.126;11.546;2022-09-21T01:30:12;8.40;99.90
9179;DHT22;4624;48.126;11.546;2022-09-21T01:32:42;8.30;99.90
9179;DHT22;4624;48.126;11.546;2022-09-21T01:35:14;8.30;99.90
9179;DHT22;4624;48.126;11.546;2022-09-21T01:37:44;8.30;99.90
9179;DHT22;4624;48.126;11.546;2022-09-21T01:40:16;8.20;99.90
9179;DHT22;4624;48.126;11.546;2022-09-21T01:42:47;8.20;99.90
9179;DHT22;4624;48.126;11.546;2022-09-21T01:45:21;8.20;99.90
9179;DHT22;4624;48.126;11.546;2022-09-21T01:47:50;8.20;99.90
9179;DHT22;4624;48.126;11.546;2022-09-21T01:50:18;8.10;99.90
9179;DHT22;4624;48.126;11.546;2022-09-21T01:52:48;8.10;99.90
9179;DHT22;4624;48.126;11.546;2022-09-21T01:55:21;8.10;99.90
9179;DHT22;4624;48.126;11.546;2022-09-21T01:57:57;8.10;99.90
9179;DHT22;4624;48.126;11.546;2022-09-21T02:00:27;8.10;99.90
9179;DHT22;4624;48.126;11.546;2022-09-21T02:02:59;8.10;99.90
9179;DHT22;4624;48.126;11.546;2022-09-21T02:05:29;8.10;99.90
9179;DHT22;4624;48.126;11.546;2022-09-21T02:07:56;8.00;99.90
9179;DHT22;4624;48.126;11.546;2022-09-21T02:10:27;8.00;99.90
9179;DHT22;4624;48.126;11.546;2022-09-21T02:12:58;8.00;99.90
9179;DHT22;4624;48.126;11.546;2022-09-21T02:15:31;8.00;99.90
9179;DHT22;4624;48.126;11.546;2022-09-21T02:18:04;7.90;99.90
9179;DHT22;4624;48.126;11.546;2022-09-21T02:20:37;7.90;99.90
9179;DHT22;4624;48.126;11.546;2022-09-21T02:23:12;7.90;99.90
9179;DHT22;4624;48.126;11.546;2022-09-21T02:25:48;7.90;99.90
9179;DHT22;4624;48.126;11.546;2022-09-21T02:28:25;7.90;99.90
9179;DHT22;4624;48.126;11.546;2022-09-21T02:31:02;7.90;99.90
9179;DHT22;4624;48.126;11.546;2022-09-21T02:33:36;7.90;99.90
9179;DHT22;4624;48.126;11.546;2022-09-21T02:36:09;7.80;99.90
9179;DHT22;4624;48.126;11.546;2022-09-21T02:38:40;7.80;99.90
9179;DHT22;4624;48.126;11.546;2022-09-21T02:41:13;7.80;99.90
9179;DHT22;4624;48.126;11.546;2022-09-21T02:43:46;7.80;99.90
9179;DHT22;4624;48.126;11.546;2022-09-21T02:46:20;7.80;99.90
9179;DHT22;4624;48.126;11.546;2022-09-21T02:48:53;7.70;99.90
9179;DHT22;4624;48.126;11.546;2022-09-21T02:51:25;7.70;99.90
9179;DHT22;4624;48.126;11.546;2022-09-21T02:53:54;7.70;99.90
9179;DHT22;4624;48.126;11.546;2022-09-21T02:56:22;7.70;99.90
9179;DHT22;4624;48.126;11.546;2022-09-21T02:58:53;7.70;99.90
9179;DHT22;4624;48.126;11.546;2022-09-21T03:01:24;7.60;99.90
9179;DHT22;4624;48.126;11.546;2022-09-21T03:03:52;7.60;99.90
9179;DHT22;4624;48.126;11.546;2022-09-21T03:06:19;7.60;99.90
9179;DHT22;4624;48.126;11.546;2022-09-21T03:08:45;7.60;99.90
9179;DHT22;4624;48.126;11.546;2022-09-21T03:11:15;7.60;99.90
9179;DHT22;4624;48.126;11.546;2022-09-21T03:13:42;7.50;99.90
9179;DHT22;4624;48.126;11.546;2022-09-21T03:16:09;7.50;99.90
9179;DHT22;4624;48.126;11.546;2022-09-21T03:18:37;7.50;99.90
9179;DHT22;4624;48.126;11.546;2022-09-21T03:21:05;7.50;99.90
9179;DHT22;4624;48.126;11.546;2022-09-21T03:23:32;7.50;99.90
9179;DHT22;4624;48.126;11.546;2022-09-21T03:25:58;7.50;99.90
9179;DHT22;4624;48.126;11.546;2022-09-21T03:28:26;7.50;99.90
9179;DHT22;4624;48.126;11.546;2022-09-21T03:30:53;7.50;99.90
9179;DHT22;4624;48.126;11.546;2022-09-21T03:33:20;7.40;99.90
9179;DHT22;4624;48.126;11.546;2022-09-21T03:35:48;7.40;99.90
9179;DHT22;4624;48.126;11.546;2022-09-21T03:38:15;7.40;99.90
9179;DHT22;4624;48.126;11.546;2022-09-21T03:40:44;7.40;99.90
9179;DHT22;4624;48.126;11.546;2022-09-21T03:43:11;7.40;99.90
9179;DHT22;4624;48.126;11.546;2022-09-21T03:45:38;7.40;99.90
9179;DHT22;4624;48.126;11.546;2022-09-21T03:48:07;7.40;99.90
9179;DHT22;4624;48.126;11.546;2022-09-21T03:50:34;7.40;99.90
9179;DHT22;4624;48.126;11.546;2022-09-21T03:53:02;7.40;99.90
9179;DHT22;4624;48.126;11.546;2022-09-21T03:55:30;7.40;99.90
9179;DHT22;4624;48.126;11.546;2022-09-21T03:57:57;7.30;99.90
9179;DHT22;4624;48.126;11.546;2022-09-21T04:00:24;7.20;99.90
9179;DHT22;4624;48.126;11.546;2022-09-21T04:02:51;7.20;99.90
9179;DHT22;4624;48.126;11.546;2022-09-21T04:05:18;7.20;99.90
9179;DHT22;4624;48.126;11.546;2022-09-21T04:07:45;7.20;99.90
9179;DHT22;4624;48.126;11.546;2022-09-21T04:10:15;7.20;99.90
9179;DHT22;4624;48.126;11.546;2022-09-21T04:12:43;7.20;99.90
9179;DHT22;4624;48.126;11.546;2022-09-21T04:15:10;7.20;99.90
9179;DHT22;4624;48.126;11.546;2022-09-21T04:17:37;7.20;99.90
9179;DHT22;4624;48.126;11.546;2022-09-21T04:20:05;7.10;99.90
9179;DHT22;4624;48.126;11.546;2022-09-21T04:22:33;7.20;99.90
9179;DHT22;4624;48.126;11.546;2022-09-21T04:25:00;7.10;99.90
9179;DHT22;4624;48.126;11.546;2022-09-21T04:27:28;7.10;99.90
9179;DHT22;4624;48.126;11.546;2022-09-21T04:29:55;7.20;99.90
9179;DHT22;4624;48.126;11.546;2022-09-21T04:32:21;7.20;99.90
9179;DHT22;4624;48.126;11.546;2022-09-21T04:34:48;7.10;99.90
9179;DHT22;4624;48.126;11.546;2022-09-21T04:37:15;7.20;99.90
9179;DHT22;4624;48.126;11.546;2022-09-21T04:39:43;7.20;99.90
9179;DHT22;4624;48.126;11.546;2022-09-21T04:42:10;7.10;99.90
9179;DHT22;4624;48.126;11.546;2022-09-21T04:44:38;7.00;99.90
9179;DHT22;4624;48.126;11.546;2022-09-21T04:47:05;6.90;99.90
9179;DHT22;4624;48.126;11.546;2022-09-21T04:49:32;6.90;99.90
9179;DHT22;4624;48.126;11.546;2022-09-21T04:51:59;6.80;99.90
9179;DHT22;4624;48.126;11.546;2022-09-21T04:54:27;6.80;99.90
9179;DHT22;4624;48.126;11.546;2022-09-21T04:56:54;6.80;99.90
9179;DHT22;4624;48.126;11.546;2022-09-21T04:59:21;6.80;99.90
9179;DHT22;4624;48.126;11.546;2022-09-21T05:01:49;6.90;99.90
9179;DHT22;4624;48.126;11.546;2022-09-21T05:04:16;6.90;99.90
9179;DHT22;4624;48.126;11.546;2022-09-21T05:06:43;6.90;99.90
9179;DHT22;4624;48.126;11.546;2022-09-21T05:09:09;6.90;99.90
9179;DHT22;4624;48.126;11.546;2022-09-21T05:11:54;6.90;99.90
9179;DHT22;4624;48.126;11.546;2022-09-21T05:14:20;6.90;99.90
9179;DHT22;4624;48.126;11.546;2022-09-21T05:16:48;6.90;99.90
9179;DHT22;4624;48.126;11.546;2022-09-21T05:19:15;6.90;99.90
9179;DHT22;4624;48.126;11.546;2022-09-21T05:21:42;6.90;99.90
9179;DHT22;4624;48.126;11.546;2022-09-21T05:24:09;6.90;99.90
9179;DHT22;4624;48.126;11.546;2022-09-21T05:26:36;6.90;99.90
9179;DHT22;4624;48.126;11.546;2022-09-21T05:29:03;6.90;99.90
9179;DHT22;4624;48.126;11.546;2022-09-21T05:31:35;6.90;99.90
9179;DHT22;4624;48.126;11.546;2022-09-21T05:34:15;6.90;99.90
9179;DHT22;4624;48.126;11.546;2022-09-21T05:36:48;7.00;99.90
9179;DHT22;4624;48.126;11.546;2022-09-21T05:39:18;7.00;99.90
9179;DHT22;4624;48.126;11.546;2022-09-21T05:41:45;7.00;99.90
9179;DHT22;4624;48.126;11.546;2022-09-21T05:44:13;7.00;99.90
9179;DHT22;4624;48.126;11.546;2022-09-21T05:46:41;7.10;99.90
9179;DHT22;4624;48.126;11.546;2022-09-21T05:49:18;7.10;99.90
9179;DHT22;4624;48.126;11.546;2022-09-21T05:51:55;7.10;99.90
9179;DHT22;4624;48.126;11.546;2022-09-21T05:54:37;7.20;99.90
9179;DHT22;4624;48.126;11.546;2022-09-21T05:57:14;7.30;99.90
9179;DHT22;4624;48.126;11.546;2022-09-21T05:59:54;7.30;99.90
9179;DHT22;4624;48.126;11.546;2022-09-21T06:02:34;7.40;99.90
9179;DHT22;4624;48.126;11.546;2022-09-21T06:05:12;7.40;99.90
9179;DHT22;4624;48.126;11.546;2022-09-21T06:07:39;7.40;99.90
9179;DHT22;4624;48.126;11.546;2022-09-21T06:10:08;7.40;99.90
9179;DHT22;4624;48.126;11.546;2022-09-21T06:12:35;7.50;99.90
9179;DHT22;4624;48.126;11.546;2022-09-21T06:15:02;7.50;99.90
9179;DHT22;4624;48.126;11.546;2022-09-21T06:17:29;7.50;99.90
9179;DHT22;4624;48.126;11.546;2022-09-21T06:19:58;7.70;99.90
9179;DHT22;4624;48.126;11.546;2022-09-21T06:22:26;7.70;99.90
9179;DHT22;4624;48.126;11.546;2022-09-21T06:24:53;7.90;99.90
9179;DHT22;4624;48.126;11.546;2022-09-21T06:27:19;8.10;99.90
9179;DHT22;4624;48.126;11.546;2022-09-21T06:29:46;8.30;99.90
9179;DHT22;4624;48.126;11.546;2022-09-21T06:32:13;8.60;99.90
9179;DHT22;4624;48.126;11.546;2022-09-21T06:34:40;8.90;99.90
9179;DHT22;4624;48.126;11.546;2022-09-21T06:37:07;9.20;99.90
9179;DHT22;4624;48.126;11.546;2022-09-21T06:39:36;9.60;99.90
9179;DHT22;4624;48.126;11.546;2022-09-21T06:42:03;10.00;99.90
9179;DHT22;4624;48.126;11.546;2022-09-21T06:44:29;10.30;99.90
9179;DHT22;4624;48.126;11.546;2022-09-21T06:46:56;10.70;99.90
9179;DHT22;4624;48.126;11.546;2022-09-21T06:49:23;11.20;99.90
9179;DHT22;4624;48.126;11.546;2022-09-21T06:51:53;11.50;99.90
9179;DHT22;4624;48.126;11.546;2022-09-21T06:54:19;11.90;99.90
9179;DHT22;4624;48.126;11.546;2022-09-21T06:56:47;12.20;99.90
9179;DHT22;4624;48.126;11.546;2022-09-21T06:59:14;12.60;99.90
9179;DHT22;4624;48.126;11.546;2022-09-21T07:01:41;12.90;99.90
9179;DHT22;4624;48.126;11.546;2022-09-21T07:04:08;13.30;99.80
9179;DHT22;4624;48.126;11.546;2022-09-21T07:06:35;13.60;99.00
9179;DHT22;4624;48.126;11.546;2022-09-21T07:09:02;13.80;98.00
9179;DHT22;4624;48.126;11.546;2022-09-21T07:11:29;14.00;97.60
9179;DHT22;4624;48.126;11.546;2022-09-21T07:13:57;14.20;96.90
9179;DHT22;4624;48.126;11.546;2022-09-21T07:16:24;14.40;96.30
9179;DHT22;4624;48.126;11.546;2022-09-21T07:18:52;14.60;95.70
9179;DHT22;4624;48.126;11.546;2022-09-21T07:21:19;14.80;95.40
9179;DHT22;4624;48.126;11.546;2022-09-21T07:23:45;15.00;94.60
9179;DHT22;4624;48.126;11.546;2022-09-21T07:26:13;15.30;94.40
9179;DHT22;4624;48.126;11.546;2022-09-21T07:28:40;15.50;93.70
9179;DHT22;4624;48.126;11.546;2022-09-21T07:31:10;15.80;93.20
9179;DHT22;4624;48.126;11.546;2022-09-21T07:33:38;16.20;92.60
9179;DHT22;4624;48.126;11.546;2022-09-21T07:36:05;16.60;91.80
9179;DHT22;4624;48.126;11.546;2022-09-21T07:38:35;16.90;90.60
9179;DHT22;4624;48.126;11.546;2022-09-21T07:41:03;17.40;90.10
9179;DHT22;4624;48.126;11.546;2022-09-21T07:43:29;18.00;89.20
9179;DHT22;4624;48.126;11.546;2022-09-21T07:45:56;18.90;85.10
9179;DHT22;4624;48.126;11.546;2022-09-21T07:48:24;19.60;81.00
9179;DHT22;4624;48.126;11.546;2022-09-21T07:50:51;20.20;78.30
9179;DHT22;4624;48.126;11.546;2022-09-21T07:53:19;20.50;74.60
9179;DHT22;4624;48.126;11.546;2022-09-21T07:55:46;20.70;72.50
9179;DHT22;4624;48.126;11.546;2022-09-21T07:58:13;20.90;71.60
9179;DHT22;4624;48.126;11.546;2022-09-21T08:00:57;21.10;70.60
9179;DHT22;4624;48.126;11.546;2022-09-21T08:03:25;21.20;68.60
9179;DHT22;4624;48.126;11.546;2022-09-21T08:05:52;20.90;66.30
9179;DHT22;4624;48.126;11.546;2022-09-21T08:08:18;20.80;66.20
9179;DHT22;4624;48.126;11.546;2022-09-21T08:10:45;20.80;65.10
9179;DHT22;4624;48.126;11.546;2022-09-21T08:13:12;20.80;65.10
9179;DHT22;4624;48.126;11.546;2022-09-21T08:15:38;20.80;66.10
9179;DHT22;4624;48.126;11.546;2022-09-21T08:18:05;20.90;64.60
9179;DHT22;4624;48.126;11.546;2022-09-21T08:20:34;21.10;63.60
9179;DHT22;4624;48.126;11.546;2022-09-21T08:23:01;21.20;63.30
9179;DHT22;4624;48.126;11.546;2022-09-21T08:25:27;21.40;63.00
9179;DHT22;4624;48.126;11.546;2022-09-21T08:27:57;21.50;62.70
9179;DHT22;4624;48.126;11.546;2022-09-21T08:30:25;21.70;61.20
9179;DHT22;4624;48.126;11.546;2022-09-21T08:32:53;21.50;59.40
9179;DHT22;4624;48.126;11.546;2022-09-21T08:35:20;21.30;59.10
9179;DHT22;4624;48.126;11.546;2022-09-21T08:37:48;21.30;58.30
9179;DHT22;4624;48.126;11.546;2022-09-21T08:40:18;21.50;58.90
9179;DHT22;4624;48.126;11.546;2022-09-21T08:42:54;21.80;59.20
9179;DHT22;4624;48.126;11.546;2022-09-21T08:45:25;22.20;58.50
9179;DHT22;4624;48.126;11.546;2022-09-21T08:47:59;22.50;57.50
9179;DHT22;4624;48.126;11.546;2022-09-21T08:50:32;22.80;57.00
9179;DHT22;4624;48.126;11.546;2022-09-21T08:53:04;23.00;55.40
9179;DHT22;4624;48.126;11.546;2022-09-21T08:55:32;23.00;54.70
9179;DHT22;4624;48.126;11.546;2022-09-21T08:57:59;23.20;54.70
9179;DHT22;4624;48.126;11.546;2022-09-21T09:00:26;23.40;54.30
9179;DHT22;4624;48.126;11.546;2022-09-21T09:03:17;23.80;52.60
9179;DHT22;4624;48.126;11.546;2022-09-21T09:05:50;23.90;51.00
9179;DHT22;4624;48.126;11.546;2022-09-21T09:08:36;24.00;50.80
9179;DHT22;4624;48.126;11.546;2022-09-21T09:11:15;24.30;50.00
9179;DHT22;4624;48.126;11.546;2022-09-21T09:14:09;23.80;50.20
9179;DHT22;4624;48.126;11.546;2022-09-21T09:16:43;24.10;49.90
9179;DHT22;4624;48.126;11.546;2022-09-21T09:19:21;24.20;49.50
9179;DHT22;4624;48.126;11.546;2022-09-21T09:21:49;23.50;49.80
9179;DHT22;4624;48.126;11.546;2022-09-21T09:24:28;23.00;50.00
9179;DHT22;4624;48.126;11.546;2022-09-21T09:27:00;23.20;49.80
9179;DHT22;4624;48.126;11.546;2022-09-21T09:29:32;23.90;50.30
9179;DHT22;4624;48.126;11.546;2022-09-21T09:32:01;24.80;50.60
9179;DHT22;4624;48.126;11.546;2022-09-21T09:34:32;25.30;48.60
9179;DHT22;4624;48.126;11.546;2022-09-21T09:37:10;24.10;48.00
9179;DHT22;4624;48.126;11.546;2022-09-21T09:39:39;23.80;48.90
9179;DHT22;4624;48.126;11.546;2022-09-21T09:42:40;22.70;49.70
9179;DHT22;4624;48.126;11.546;2022-09-21T09:45:32;23.20;50.20
9179;DHT22;4624;48.126;11.546;2022-09-21T09:48:14;24.50;49.50
9179;DHT22;4624;48.126;11.546;2022-09-21T09:50:45;24.80;47.80
9179;DHT22;4624;48.126;11.546;2022-09-21T09:53:15;24.70;48.50
9179;DHT22;4624;48.126;11.546;2022-09-21T09:55:45;25.60;47.40
9179;DHT22;4624;48.126;11.546;2022-09-21T09:58:17;25.40;46.00
9179;DHT22;4624;48.126;11.546;2022-09-21T10:00:45;25.10;45.10
9179;DHT22;4624;48.126;11.546;2022-09-21T10:03:16;25.00;45.30
9179;DHT22;4624;48.126;11.546;2022-09-21T10:05:44;25.90;44.70
9179;DHT22;4624;48.126;11.546;2022-09-21T10:08:39;26.90;44.70
9179;DHT22;4624;48.126;11.546;2022-09-21T10:11:09;27.80;42.90
9179;DHT22;4624;48.126;11.546;2022-09-21T10:13:37;26.40;43.00
9179;DHT22;4624;48.126;11.546;2022-09-21T10:16:11;24.60;44.50
9179;DHT22;4624;48.126;11.546;2022-09-21T10:18:43;23.50;46.10
9179;DHT22;4624;48.126;11.546;2022-09-21T10:21:17;22.50;47.60
9179;DHT22;4624;48.126;11.546;2022-09-21T10:23:47;21.50;48.50
9179;DHT22;4624;48.126;11.546;2022-09-21T10:26:19;22.80;48.50
9179;DHT22;4624;48.126;11.546;2022-09-21T10:28:57;24.40;47.10
9179;DHT22;4624;48.126;11.546;2022-09-21T10:31:25;26.10;44.80
9179;DHT22;4624;48.126;11.546;2022-09-21T10:34:03;25.70;44.90
9179;DHT22;4624;48.126;11.546;2022-09-21T10:36:33;26.10;44.20
9179;DHT22;4624;48.126;11.546;2022-09-21T10:39:25;26.00;43.30
9179;DHT22;4624;48.126;11.546;2022-09-21T10:41:57;26.00;43.60
9179;DHT22;4624;48.126;11.546;2022-09-21T10:44:28;26.00;44.00
9179;DHT22;4624;48.126;11.546;2022-09-21T10:46:56;26.60;43.00
9179;DHT22;4624;48.126;11.546;2022-09-21T10:49:25;27.90;41.60
9179;DHT22;4624;48.126;11.546;2022-09-21T10:51:54;28.50;40.60
9179;DHT22;4624;48.126;11.546;2022-09-21T10:54:26;29.50;40.10
9179;DHT22;4624;48.126;11.546;2022-09-21T10:56:59;30.20;39.30
9179;DHT22;4624;48.126;11.546;2022-09-21T10:59:28;30.70;38.40
9179;DHT22;4624;48.126;11.546;2022-09-21T11:01:57;29.10;38.10
9179;DHT22;4624;48.126;11.546;2022-09-21T11:04:40;27.20;40.00
9179;DHT22;4624;48.126;11.546;2022-09-21T11:07:14;25.60;42.70
9179;DHT22;4624;48.126;11.546;2022-09-21T11:09:45;24.60;44.70
9179;DHT22;4624;48.126;11.546;2022-09-21T11:12:35;24.40;45.10
9179;DHT22;4624;48.126;11.546;2022-09-21T11:15:15;24.00;45.90
9179;DHT22;4624;48.126;11.546;2022-09-21T11:17:46;25.10;44.90
9179;DHT22;4624;48.126;11.546;2022-09-21T11:20:21;24.20;45.20
9179;DHT22;4624;48.126;11.546;2022-09-21T11:22:59;24.40;44.80
9179;DHT22;4624;48.126;11.546;2022-09-21T11:25:34;24.60;44.50
9179;DHT22;4624;48.126;11.546;2022-09-21T11:28:10;25.50;43.50
9179;DHT22;4624;48.126;11.546;2022-09-21T11:30:51;26.80;42.40
9179;DHT22;4624;48.126;11.546;2022-09-21T11:33:30;26.90;42.30
9179;DHT22;4624;48.126;11.546;2022-09-21T11:36:04;25.30;43.40
9179;DHT22;4624;48.126;11.546;2022-09-21T11:38:40;23.30;44.60
9179;DHT22;4624;48.126;11.546;2022-09-21T11:41:33;22.70;45.50
9179;DHT22;4624;48.126;11.546;2022-09-21T11:44:17;21.90;45.80
9179;DHT22;4624;48.126;11.546;2022-09-21T11:46:50;21.20;47.50
9179;DHT22;4624;48.126;11.546;2022-09-21T11:49:40;21.30;47.00
9179;DHT22;4624;48.126;11.546;2022-09-21T11:52:19;23.00;45.90
9179;DHT22;4624;48.126;11.546;2022-09-21T11:55:18;24.20;43.20
9179;DHT22;4624;48.126;11.546;2022-09-21T11:57:53;26.70;41.60
9179;DHT22;4624;48.126;11.546;2022-09-21T12:00:23;28.50;39.10
9179;DHT22;4624;48.126;11.546;2022-09-21T12:06:09;28.30;37.50
9179;DHT22;4624;48.126;11.546;2022-09-21T12:11:40;30.10;36.00
9179;DHT22;4624;48.126;11.546;2022-09-21T12:14:16;30.70;35.30
9179;DHT22;4624;48.126;11.546;2022-09-21T12:16:51;31.40;34.70
9179;DHT22;4624;48.126;11.546;2022-09-21T12:19:26;31.50;33.80
9179;DHT22;4624;48.126;11.546;2022-09-21T12:22:02;31.70;33.70
9179;DHT22;4624;48.126;11.546;2022-09-21T12:24:35;31.00;33.30
9179;DHT22;4624;48.126;11.546;2022-09-21T12:27:21;30.40;34.60
9179;DHT22;4624;48.126;11.546;2022-09-21T12:29:54;28.90;35.10
9179;DHT22;4624;48.126;11.546;2022-09-21T12:32:27;26.90;36.30
9179;DHT22;4624;48.126;11.546;2022-09-21T12:34:59;24.70;38.60
9179;DHT22;4624;48.126;11.546;2022-09-21T12:37:30;22.90;40.00
9179;DHT22;4624;48.126;11.546;2022-09-21T12:40:04;21.60;41.60
9179;DHT22;4624;48.126;11.546;2022-09-21T12:42:37;20.50;43.50
9179;DHT22;4624;48.126;11.546;2022-09-21T12:45:11;19.80;44.30
9179;DHT22;4624;48.126;11.546;2022-09-21T12:47:48;19.30;45.20
9179;DHT22;4624;48.126;11.546;2022-09-21T12:50:23;18.80;46.50
9179;DHT22;4624;48.126;11.546;2022-09-21T12:52:51;18.40;47.70
9179;DHT22;4624;48.126;11.546;2022-09-21T12:55:33;18.10;48.40
9179;DHT22;4624;48.126;11.546;2022-09-21T12:58:15;17.90;48.50
9179;DHT22;4624;48.126;11.546;2022-09-21T13:00:52;17.80;48.80
9179;DHT22;4624;48.126;11.546;2022-09-21T13:03:29;17.60;49.20
9179;DHT22;4624;48.126;11.546;2022-09-21T13:06:29;17.50;49.80
9179;DHT22;4624;48.126;11.546;2022-09-21T13:09:00;17.40;49.90
9179;DHT22;4624;48.126;11.546;2022-09-21T13:11:30;17.20;49.60
9179;DHT22;4624;48.126;11.546;2022-09-21T13:14:00;17.10;50.40
9179;DHT22;4624;48.126;11.546;2022-09-21T13:16:29;17.10;51.40
9179;DHT22;4624;48.126;11.546;2022-09-21T13:18:59;17.10;51.40
9179;DHT22;4624;48.126;11.546;2022-09-21T13:21:28;17.00;51.70
9179;DHT22;4624;48.126;11.546;2022-09-21T13:23:57;17.10;52.70
9179;DHT22;4624;48.126;11.546;2022-09-21T13:26:31;17.10;52.30
9179;DHT22;4624;48.126;11.546;2022-09-21T13:29:04;17.00;52.00
9179;DHT22;4624;48.126;11.546;2022-09-21T13:31:51;17.00;51.90
9179;DHT22;4624;48.126;11.546;2022-09-21T13:34:24;17.00;52.50
9179;DHT22;4624;48.126;11.546;2022-09-21T13:37:25;17.00;52.20
9179;DHT22;4624;48.126;11.546;2022-09-21T13:43:20;16.90;52.50
9179;DHT22;4624;48.126;11.546;2022-09-21T13:45:54;16.70;52.50
9179;DHT22;4624;48.126;11.546;2022-09-21T13:48:23;16.60;53.20
9179;DHT22;4624;48.126;11.546;2022-09-21T13:51:06;16.50;53.40
9179;DHT22;4624;48.126;11.546;2022-09-21T13:53:36;16.30;52.90
9179;DHT22;4624;48.126;11.546;2022-09-21T13:56:07;16.20;53.30
9179;DHT22;4624;48.126;11.546;2022-09-21T13:58:40;16.20;53.40
9179;DHT22;4624;48.126;11.546;2022-09-21T14:01:14;16.10;53.40
9179;DHT22;4624;48.126;11.546;2022-09-21T14:03:43;16.10;53.40
9179;DHT22;4624;48.126;11.546;2022-09-21T14:06:15;16.10;53.70
9179;DHT22;4624;48.126;11.546;2022-09-21T14:08:48;16.10;54.30
9179;DHT22;4624;48.126;11.546;2022-09-21T14:11:19;16.00;53.80
9179;DHT22;4624;48.126;11.546;2022-09-21T14:14:02;15.90;54.00
9179;DHT22;4624;48.126;11.546;2022-09-21T14:16:53;15.90;55.00
9179;DHT22;4624;48.126;11.546;2022-09-21T14:22:37;15.90;55.10
9179;DHT22;4624;48.126;11.546;2022-09-21T14:25:47;15.90;54.70
9179;DHT22;4624;48.126;11.546;2022-09-21T14:28:16;15.90;54.80
9179;DHT22;4624;48.126;11.546;2022-09-21T14:30:50;15.80;54.50
9179;DHT22;4624;48.126;11.546;2022-09-21T14:33:29;15.70;54.40
9179;DHT22;4624;48.126;11.546;2022-09-21T14:35:59;15.70;54.60
9179;DHT22;4624;48.126;11.546;2022-09-21T14:38:37;15.70;54.60
9179;DHT22;4624;48.126;11.546;2022-09-21T14:41:07;15.80;55.20
9179;DHT22;4624;48.126;11.546;2022-09-21T14:43:36;15.70;54.70
9179;DHT22;4624;48.126;11.546;2022-09-21T14:46:26;15.60;54.30
9179;DHT22;4624;48.126;11.546;2022-09-21T14:49:02;15.60;54.30
9179;DHT22;4624;48.126;11.546;2022-09-21T14:51:40;15.50;54.60
9179;DHT22;4624;48.126;11.546;2022-09-21T14:54:24;15.50;53.80
9179;DHT22;4624;48.126;11.546;2022-09-21T14:57:09;15.50;53.30
9179;DHT22;4624;48.126;11.546;2022-09-21T14:59:48;15.40;53.40
9179;DHT22;4624;48.126;11.546;2022-09-21T15:02:19;15.40;54.00
9179;DHT22;4624;48.126;11.546;2022-09-21T15:04:56;15.40;53.60
9179;DHT22;4624;48.126;11.546;2022-09-21T15:07:33;15.30;53.60
9179;DHT22;4624;48.126;11.546;2022-09-21T15:10:32;15.40;53.60
9179;DHT22;4624;48.126;11.546;2022-09-21T15:16:28;15.30;53.30
9179;DHT22;4624;48.126;11.546;2022-09-21T15:19:04;15.20;53.30
9179;DHT22;4624;48.126;11.546;2022-09-21T15:21:39;15.20;53.50
9179;DHT22;4624;48.126;11.546;2022-09-21T15:24:17;15.30;53.30
9179;DHT22;4624;48.126;11.546;2022-09-21T15:26:47;15.30;53.40
9179;DHT22;4624;48.126;11.546;2022-09-21T15:29:20;15.30;54.30
9179;DHT22;4624;48.126;11.546;2022-09-21T15:31:49;15.30;54.00
9179;DHT22;4624;48.126;11.546;2022-09-21T15:34:16;15.30;54.10
9179;DHT22;4624;48.126;11.546;2022-09-21T15:36:43;15.20;53.50
9179;DHT22;4624;48.126;11.546;2022-09-21T15:39:25;15.20;53.60
9179;DHT22;4624;48.126;11.546;2022-09-21T15:42:14;15.20;53.90
9179;DHT22;4624;48.126;11.546;2022-09-21T15:44:42;15.10;54.20
9179;DHT22;4624;48.126;11.546;2022-09-21T15:47:14;15.10;54.90
9179;DHT22;4624;48.126;11.546;2022-09-21T15:49:43;15.00;55.30
9179;DHT22;4624;48.126;11.546;2022-09-21T15:52:12;15.00;56.20
9179;DHT22;4624;48.126;11.546;2022-09-21T15:54:44;15.00;56.40
9179;DHT22;4624;48.126;11.546;2022-09-21T15:57:29;14.90;56.30
9179;DHT22;4624;48.126;11.546;2022-09-21T15:59:58;14.90;56.40
9179;DHT22;4624;48.126;11.546;2022-09-21T16:02:32;14.80;56.50
9179;DHT22;4624;48.126;11.546;2022-09-21T16:04:59;14.80;56.70
9179;DHT22;4624;48.126;11.546;2022-09-21T16:07:31;14.70;56.90
9179;DHT22;4624;48.126;11.546;2022-09-21T16:09:58;14.70;57.10
9179;DHT22;4624;48.126;11.546;2022-09-21T16:12:37;14.70;56.90
9179;DHT22;4624;48.126;11.546;2022-09-21T16:15:16;14.60;57.30
9179;DHT22;4624;48.126;11.546;2022-09-21T16:17:59;14.60;57.50
9179;DHT22;4624;48.126;11.546;2022-09-21T16:20:44;14.60;57.90
9179;DHT22;4624;48.126;11.546;2022-09-21T16:23:15;14.60;59.00
9179;DHT22;4624;48.126;11.546;2022-09-21T16:25:42;14.50;59.40
9179;DHT22;4624;48.126;11.546;2022-09-21T16:28:33;14.40;59.30
9179;DHT22;4624;48.126;11.546;2022-09-21T16:31:21;14.40;59.50
9179;DHT22;4624;48.126;11.546;2022-09-21T16:34:18;14.30;59.50
9179;DHT22;4624;48.126;11.546;2022-09-21T16:36:47;14.20;59.50
9179;DHT22;4624;48.126;11.546;2022-09-21T16:39:15;14.20;59.70
9179;DHT22;4624;48.126;11.546;2022-09-21T16:41:51;14.10;59.80
9179;DHT22;4624;48.126;11.546;2022-09-21T16:44:21;14.10;60.10